sensor_id;sensor_type;location;lat;lon;timestamp;pressure;altitude;pressure_sealevel;temperature;humidity
22031;BME280;11179;52.106;21.024;2022-12-08T00:01:17;99674.38;;;0.84;69.55
22031;BME280;11179;52.106;21.024;2022-12-08T00:03:44;99676.47;;;0.89;69.57
22031;BME280;11179;52.106;21.024;2022-12-08T00:09:12;99692.03;;;0.94;69.37
22031;BME280;11179;52.106;21.024;2022-12-08T00:11:57;99694.72;;;0.94;69.52
22031;BME280;11179;52.106;21.024;2022-12-08T00:14:35;99686.84;;;0.92;69.37
22031;BME280;11179;52.106;21.024;2022-12-08T00:17:01;99694.50;;;0.95;69.56
22031;BME280;11179;52.106;21.024;2022-12-08T00:19:28;99688.72;;;0.92;69.56
22031;BME280;11179;52.106;21.024;2022-12-08T00:21:54;99703.06;;;0.92;69.43
22031;BME280;11179;52.106;21.024;2022-12-08T00:24:20;99703.91;;;0.86;69.75
22031;BME280;11179;52.106;21.024;2022-12-08T00:26:46;99707.22;;;0.81;69.67
22031;BME280;11179;52.106;21.024;2022-12-08T00:29:12;99703.94;;;0.73;69.88
22031;BME280;11179;52.106;21.024;2022-12-08T00:31:38;99715.38;;;0.75;69.91
22031;BME280;11179;52.106;21.024;2022-12-08T00:34:03;99713.91;;;0.72;69.74
22031;BME280;11179;52.106;21.024;2022-12-08T00:36:29;99717.22;;;0.68;69.94
22031;BME280;11179;52.106;21.024;2022-12-08T00:38:55;99713.09;;;0.59;69.48
22031;BME280;11179;52.106;21.024;2022-12-08T00:41:22;99721.59;;;0.56;69.73
22031;BME280;11179;52.106;21.024;2022-12-08T00:44:09;99721.63;;;0.49;69.78
22031;BME280;11179;52.106;21.024;2022-12-08T00:46:35;99724.94;;;0.44;69.68
22031;BME280;11179;52.106;21.024;2022-12-08T00:49:01;99730.16;;;0.39;69.76
22031;BME280;11179;52.106;21.024;2022-12-08T00:51:26;99725.16;;;0.36;69.75
22031;BME280;11179;52.106;21.024;2022-12-08T00:53:52;99730.16;;;0.26;69.55
22031;BME280;11179;52.106;21.024;2022-12-08T00:56:17;99744.06;;;0.23;69.76
22031;BME280;11179;52.106;21.024;2022-12-08T00:58:42;99743.00;;;0.18;69.73
22031;BME280;11179;52.106;21.024;2022-12-08T01:01:12;99744.88;;;0.17;69.65
22031;BME280;11179;52.106;21.024;2022-12-08T01:03:38;99739.28;;;0.12;69.79
22031;BME280;11179;52.106;21.024;2022-12-08T01:06:05;99756.06;;;0.14;69.66
22031;BME280;11179;52.106;21.024;2022-12-08T01:08:30;99748.41;;;0.11;69.47
22031;BME280;11179;52.106;21.024;2022-12-08T01:10:56;99746.75;;;0.10;69.42
22031;BME280;11179;52.106;21.024;2022-12-08T01:13:27;99744.88;;;0.10;69.46
22031;BME280;11179;52.106;21.024;2022-12-08T01:15:52;99750.25;;;0.17;69.48
22031;BME280;11179;52.106;21.024;2022-12-08T01:18:17;99759.63;;;0.21;69.19
22031;BME280;11179;52.106;21.024;2022-12-08T01:20:43;99751.50;;;0.14;69.19
22031;BME280;11179;52.106;21.024;2022-12-08T01:23:08;99751.31;;;0.16;69.10
22031;BME280;11179;52.106;21.024;2022-12-08T01:25:33;99761.69;;;0.19;69.32
22031;BME280;11179;52.106;21.024;2022-12-08T01:27:59;99763.78;;;0.10;69.01
22031;BME280;11179;52.106;21.024;2022-12-08T01:30:24;99771.88;;;0.10;69.22
22031;BME280;11179;52.106;21.024;2022-12-08T01:32:50;99761.25;;;0.02;69.20
22031;BME280;11179;52.106;21.024;2022-12-08T01:35:15;99764.13;;;0.01;69.19
22031;BME280;11179;52.106;21.024;2022-12-08T01:37:40;99768.72;;;-0.06;68.92
22031;BME280;11179;52.106;21.024;2022-12-08T01:40:06;99758.72;;;-0.12;69.06
22031;BME280;11179;52.106;21.024;2022-12-08T01:42:32;99744.38;;;-0.19;69.12
22031;BME280;11179;52.106;21.024;2022-12-08T01:45:06;99763.09;;;-0.11;69.22
22031;BME280;11179;52.106;21.024;2022-12-08T01:47:41;99763.72;;;-0.09;69.24
22031;BME280;11179;52.106;21.024;2022-12-08T01:50:10;99769.09;;;-0.09;69.13
22031;BME280;11179;52.106;21.024;2022-12-08T01:52:48;99754.16;;;-0.18;68.95
22031;BME280;11179;52.106;21.024;2022-12-08T01:55:21;99766.59;;;-0.17;68.97
22031;BME280;11179;52.106;21.024;2022-12-08T01:57:51;99770.34;;;-0.18;69.28
22031;BME280;11179;52.106;21.024;2022-12-08T02:00:20;99765.53;;;-0.23;69.12
22031;BME280;11179;52.106;21.024;2022-12-08T02:02:56;99777.41;;;-0.17;69.18
22031;BME280;11179;52.106;21.024;2022-12-08T02:05:26;99771.78;;;-0.23;68.99
22031;BME280;11179;52.106;21.024;2022-12-08T02:07:53;99765.34;;;-0.28;68.84
22031;BME280;11179;52.106;21.024;2022-12-08T02:10:21;99774.25;;;-0.28;68.96
22031;BME280;11179;52.106;21.024;2022-12-08T02:12:49;99781.94;;;-0.25;68.79
22031;BME280;11179;52.106;21.024;2022-12-08T02:15:17;99778.00;;;-0.29;68.86
22031;BME280;11179;52.106;21.024;2022-12-08T02:17:47;99780.69;;;-0.29;68.78
22031;BME280;11179;52.106;21.024;2022-12-08T02:20:39;99781.91;;;-0.31;68.67
22031;BME280;11179;52.106;21.024;2022-12-08T02:28:37;99787.50;;;-0.33;68.71
22031;BME280;11179;52.106;21.024;2022-12-08T02:31:38;99785.66;;;-0.32;68.84
22031;BME280;11179;52.106;21.024;2022-12-08T02:34:31;99791.25;;;-0.34;68.62
22031;BME280;11179;52.106;21.024;2022-12-08T02:37:08;99783.53;;;-0.37;68.73
22031;BME280;11179;52.106;21.024;2022-12-08T02:40:02;99782.31;;;-0.41;68.93
22031;BME280;11179;52.106;21.024;2022-12-08T02:42:37;99798.06;;;-0.38;68.73
22031;BME280;11179;52.106;21.024;2022-12-08T02:45:09;99791.00;;;-0.39;68.83
22031;BME280;11179;52.106;21.024;2022-12-08T02:47:36;99794.13;;;-0.42;68.69
22031;BME280;11179;52.106;21.024;2022-12-08T02:50:02;99790.75;;;-0.50;69.09
22031;BME280;11179;52.106;21.024;2022-12-08T02:55:03;99787.84;;;-0.55;68.96
22031;BME280;11179;52.106;21.024;2022-12-08T03:07:48;99805.00;;;-0.63;69.05
22031;BME280;11179;52.106;21.024;2022-12-08T03:10:30;99805.00;;;-0.63;69.05
22031;BME280;11179;52.106;21.024;2022-12-08T03:13:03;99802.69;;;-0.66;68.99
22031;BME280;11179;52.106;21.024;2022-12-08T03:15:30;99812.44;;;-0.65;68.92
22031;BME280;11179;52.106;21.024;2022-12-08T03:17:58;99824.91;;;-0.64;69.09
22031;BME280;11179;52.106;21.024;2022-12-08T03:20:26;99818.25;;;-0.68;68.97
22031;BME280;11179;52.106;21.024;2022-12-08T03:22:57;99821.16;;;-0.70;69.02
22031;BME280;11179;52.106;21.024;2022-12-08T03:25:26;99831.75;;;-0.68;68.86
22031;BME280;11179;52.106;21.024;2022-12-08T03:27:52;99836.50;;;-0.70;68.95
22031;BME280;11179;52.106;21.024;2022-12-08T03:30:18;99825.25;;;-0.80;68.91
22031;BME280;11179;52.106;21.024;2022-12-08T03:32:52;99831.88;;;-0.76;69.04
22031;BME280;11179;52.106;21.024;2022-12-08T03:35:23;99832.31;;;-0.73;69.13
22031;BME280;11179;52.106;21.024;2022-12-08T03:37:50;99832.78;;;-0.69;69.24
22031;BME280;11179;52.106;21.024;2022-12-08T03:40:18;99830.06;;;-0.69;69.24
22031;BME280;11179;52.106;21.024;2022-12-08T03:42:44;99830.72;;;-0.67;69.23
22031;BME280;11179;52.106;21.024;2022-12-08T03:45:09;99839.41;;;-0.65;69.15
22031;BME280;11179;52.106;21.024;2022-12-08T03:47:36;99843.38;;;-0.61;69.16
22031;BME280;11179;52.106;21.024;2022-12-08T03:50:01;99827.59;;;-0.64;69.00
22031;BME280;11179;52.106;21.024;2022-12-08T03:52:26;99827.41;;;-0.63;69.13
22031;BME280;11179;52.106;21.024;2022-12-08T03:54:52;99829.06;;;-0.62;69.04
22031;BME280;11179;52.106;21.024;2022-12-08T03:57:17;99826.97;;;-0.66;69.07
22031;BME280;11179;52.106;21.024;2022-12-08T03:59:42;99831.97;;;-0.63;69.19
22031;BME280;11179;52.106;21.024;2022-12-08T04:02:08;99833.41;;;-0.67;69.25
22031;BME280;11179;52.106;21.024;2022-12-08T04:04:33;99850.25;;;-0.59;69.03
22031;BME280;11179;52.106;21.024;2022-12-08T04:06:59;99850.69;;;-0.55;69.06
22031;BME280;11179;52.106;21.024;2022-12-08T04:09:24;99840.28;;;-0.58;69.10
22031;BME280;11179;52.106;21.024;2022-12-08T04:11:49;99836.97;;;-0.60;69.01
22031;BME280;11179;52.106;21.024;2022-12-08T04:14:15;99855.66;;;-0.52;69.13
22031;BME280;11179;52.106;21.024;2022-12-08T04:16:40;99849.44;;;-0.52;69.06
22031;BME280;11179;52.106;21.024;2022-12-08T04:19:06;99846.34;;;-0.49;69.21
22031;BME280;11179;52.106;21.024;2022-12-08T04:21:31;99863.63;;;-0.37;69.07
22031;BME280;11179;52.106;21.024;2022-12-08T04:23:56;99866.13;;;-0.36;69.08
22031;BME280;11179;52.106;21.024;2022-12-08T04:26:22;99871.78;;;-0.31;69.12
22031;BME280;11179;52.106;21.024;2022-12-08T04:28:47;99866.56;;;-0.32;69.10
22031;BME280;11179;52.106;21.024;2022-12-08T04:31:12;99871.16;;;-0.26;68.88
22031;BME280;11179;52.106;21.024;2022-12-08T04:33:38;99873.66;;;-0.25;69.12
22031;BME280;11179;52.106;21.024;2022-12-08T04:36:04;99867.84;;;-0.28;68.96
22031;BME280;11179;52.106;21.024;2022-12-08T04:38:31;99880.72;;;-0.24;68.85
22031;BME280;11179;52.106;21.024;2022-12-08T04:40:56;99878.63;;;-0.28;68.90
22031;BME280;11179;52.106;21.024;2022-12-08T04:43:22;99868.25;;;-0.31;68.96
22031;BME280;11179;52.106;21.024;2022-12-08T04:45:47;99870.31;;;-0.33;69.08
22031;BME280;11179;52.106;21.024;2022-12-08T04:48:13;99874.50;;;-0.24;68.99
22031;BME280;11179;52.106;21.024;2022-12-08T04:50:43;99874.28;;;-0.23;69.11
22031;BME280;11179;52.106;21.024;2022-12-08T04:53:09;99865.81;;;-0.19;69.05
22031;BME280;11179;52.106;21.024;2022-12-08T04:55:43;99874.13;;;-0.14;68.91
22031;BME280;11179;52.106;21.024;2022-12-08T04:58:16;99884.50;;;-0.11;69.06
22031;BME280;11179;52.106;21.024;2022-12-08T05:00:42;99882.44;;;-0.09;68.82
22031;BME280;11179;52.106;21.024;2022-12-08T05:03:08;99878.28;;;-0.12;68.97
22031;BME280;11179;52.106;21.024;2022-12-08T05:05:33;99893.69;;;-0.06;68.77
22031;BME280;11179;52.106;21.024;2022-12-08T05:07:59;99889.13;;;-0.05;68.85
22031;BME280;11179;52.106;21.024;2022-12-08T05:10:24;99881.41;;;-0.08;68.65
22031;BME280;11179;52.106;21.024;2022-12-08T05:12:50;99881.66;;;-0.03;68.64
22031;BME280;11179;52.106;21.024;2022-12-08T05:15:15;99877.94;;;-0.02;68.91
22031;BME280;11179;52.106;21.024;2022-12-08T05:17:41;99869.19;;;-0.04;68.79
22031;BME280;11179;52.106;21.024;2022-12-08T05:20:07;99888.72;;;0.04;68.65
22031;BME280;11179;52.106;21.024;2022-12-08T05:22:32;99886.63;;;-0.00;68.59
22031;BME280;11179;52.106;21.024;2022-12-08T05:24:58;99889.56;;;0.05;68.69
22031;BME280;11179;52.106;21.024;2022-12-08T05:27:23;99901.44;;;0.10;68.79
22031;BME280;11179;52.106;21.024;2022-12-08T05:29:48;99884.81;;;0.07;68.61
22031;BME280;11179;52.106;21.024;2022-12-08T05:32:14;99885.03;;;0.12;68.71
22031;BME280;11179;52.106;21.024;2022-12-08T05:34:40;99893.75;;;0.14;68.60
22031;BME280;11179;52.106;21.024;2022-12-08T05:37:05;99885.44;;;0.09;68.81
22031;BME280;11179;52.106;21.024;2022-12-08T05:39:30;99886.06;;;0.11;68.52
22031;BME280;11179;52.106;21.024;2022-12-08T05:41:56;99885.03;;;0.12;68.55
22031;BME280;11179;52.106;21.024;2022-12-08T05:44:21;99878.38;;;0.08;68.73
22031;BME280;11179;52.106;21.024;2022-12-08T05:46:47;99875.03;;;0.06;68.67
22031;BME280;11179;52.106;21.024;2022-12-08T05:49:12;99897.28;;;0.08;68.69
22031;BME280;11179;52.106;21.024;2022-12-08T05:51:38;99896.81;;;0.04;68.64
22031;BME280;11179;52.106;21.024;2022-12-08T05:54:03;99890.38;;;-0.01;68.74
22031;BME280;11179;52.106;21.024;2022-12-08T05:56:28;99895.53;;;-0.06;68.71
22031;BME280;11179;52.106;21.024;2022-12-08T05:58:54;99903.25;;;-0.03;68.52
22031;BME280;11179;52.106;21.024;2022-12-08T06:01:30;99915.28;;;0.01;68.49
22031;BME280;11179;52.106;21.024;2022-12-08T06:03:57;99912.19;;;-0.03;68.38
22031;BME280;11179;52.106;21.024;2022-12-08T06:06:23;99925.47;;;-0.01;68.62
22031;BME280;11179;52.106;21.024;2022-12-08T06:08:49;99922.97;;;-0.03;68.50
22031;BME280;11179;52.106;21.024;2022-12-08T06:13:44;99929.00;;;-0.01;68.43
22031;BME280;11179;52.106;21.024;2022-12-08T06:16:09;99933.97;;;-0.04;68.62
22031;BME280;11179;52.106;21.024;2022-12-08T06:18:35;99949.97;;;-0.03;68.23
22031;BME280;11179;52.106;21.024;2022-12-08T06:21:05;99947.00;;;-0.08;68.47
22031;BME280;11179;52.106;21.024;2022-12-08T06:23:30;99945.94;;;-0.13;68.50
22031;BME280;11179;52.106;21.024;2022-12-08T06:26:00;99938.00;;;-0.22;68.43
22031;BME280;11179;52.106;21.024;2022-12-08T06:28:26;99951.06;;;-0.25;68.37
22031;BME280;11179;52.106;21.024;2022-12-08T06:30:51;99940.00;;;-0.37;68.36
22031;BME280;11179;52.106;21.024;2022-12-08T06:33:17;99952.00;;;-0.39;68.41
22031;BME280;11179;52.106;21.024;2022-12-08T06:35:42;99952.81;;;-0.45;68.55
22031;BME280;11179;52.106;21.024;2022-12-08T06:38:07;99933.00;;;-0.59;68.34
22031;BME280;11179;52.106;21.024;2022-12-08T06:40:33;99936.72;;;-0.60;68.32
22031;BME280;11179;52.106;21.024;2022-12-08T06:42:58;99941.47;;;-0.62;68.44
22031;BME280;11179;52.106;21.024;2022-12-08T06:45:23;99946.41;;;-0.66;68.50
22031;BME280;11179;52.106;21.024;2022-12-08T06:47:49;99942.66;;;-0.71;68.35
22031;BME280;11179;52.106;21.024;2022-12-08T06:50:14;99954.47;;;-0.72;68.65
22031;BME280;11179;52.106;21.024;2022-12-08T06:52:39;99941.94;;;-0.80;68.69
22031;BME280;11179;52.106;21.024;2022-12-08T06:55:07;99953.56;;;-0.79;68.63
22031;BME280;11179;52.106;21.024;2022-12-08T06:57:33;99954.22;;;-0.77;68.66
22031;BME280;11179;52.106;21.024;2022-12-08T06:59:58;99957.50;;;-0.82;68.66
22031;BME280;11179;52.106;21.024;2022-12-08T07:02:23;99964.56;;;-0.81;68.68
22031;BME280;11179;52.106;21.024;2022-12-08T07:04:50;99967.47;;;-0.82;68.59
22031;BME280;11179;52.106;21.024;2022-12-08T07:07:15;99969.13;;;-0.81;68.85
22031;BME280;11179;52.106;21.024;2022-12-08T07:09:40;99978.88;;;-0.80;68.68
22031;BME280;11179;52.106;21.024;2022-12-08T07:12:06;99964.56;;;-0.81;68.76
22031;BME280;11179;52.106;21.024;2022-12-08T07:14:31;99974.38;;;-0.73;68.60
22031;BME280;11179;52.106;21.024;2022-12-08T07:16:57;99955.00;;;-0.83;68.59
22031;BME280;11179;52.106;21.024;2022-12-08T07:19:22;99967.75;;;-0.71;68.78
22031;BME280;11179;52.106;21.024;2022-12-08T07:21:47;99980.44;;;-0.65;68.91
22031;BME280;11179;52.106;21.024;2022-12-08T07:24:13;99967.56;;;-0.69;68.80
22031;BME280;11179;52.106;21.024;2022-12-08T07:26:39;99976.72;;;-0.64;68.59
22031;BME280;11179;52.106;21.024;2022-12-08T07:29:04;99985.63;;;-0.63;68.69
22031;BME280;11179;52.106;21.024;2022-12-08T07:31:30;99984.44;;;-0.61;68.80
22031;BME280;11179;52.106;21.024;2022-12-08T07:33:56;99991.53;;;-0.53;68.75
22031;BME280;11179;52.106;21.024;2022-12-08T07:36:23;99984.97;;;-0.44;68.99
22031;BME280;11179;52.106;21.024;2022-12-08T07:38:50;99987.97;;;-0.32;68.82
22031;BME280;11179;52.106;21.024;2022-12-08T07:41:19;99993.44;;;-0.19;68.81
22031;BME280;11179;52.106;21.024;2022-12-08T07:43:45;99986.66;;;-0.08;68.68
22031;BME280;11179;52.106;21.024;2022-12-08T07:46:15;99972.13;;;-0.07;68.54
22031;BME280;11179;52.106;21.024;2022-12-08T07:48:41;99992.00;;;0.13;68.21
22031;BME280;11179;52.106;21.024;2022-12-08T07:51:06;99990.13;;;0.20;68.18
22031;BME280;11179;52.106;21.024;2022-12-08T07:53:32;99987.47;;;0.27;68.14
22031;BME280;11179;52.106;21.024;2022-12-08T07:55:58;99998.09;;;0.35;67.85
22031;BME280;11179;52.106;21.024;2022-12-08T07:58:24;100001.66;;;0.42;67.71
22031;BME280;11179;52.106;21.024;2022-12-08T08:00:50;99999.41;;;0.45;67.83
22031;BME280;11179;52.106;21.024;2022-12-08T08:03:16;100010.66;;;0.56;67.70
22031;BME280;11179;52.106;21.024;2022-12-08T08:05:41;100007.34;;;0.60;67.33
22031;BME280;11179;52.106;21.024;2022-12-08T08:08:08;99987.41;;;0.61;67.20
22031;BME280;11179;52.106;21.024;2022-12-08T08:10:33;100000.91;;;0.68;67.12
22031;BME280;11179;52.106;21.024;2022-12-08T08:12:59;100010.28;;;0.72;66.78
22031;BME280;11179;52.106;21.024;2022-12-08T08:15:25;99998.22;;;0.68;66.75
22031;BME280;11179;52.106;21.024;2022-12-08T08:17:51;100006.56;;;0.73;66.62
22031;BME280;11179;52.106;21.024;2022-12-08T08:20:17;100010.28;;;0.72;66.56
22031;BME280;11179;52.106;21.024;2022-12-08T08:22:44;100010.94;;;0.74;66.80
22031;BME280;11179;52.106;21.024;2022-12-08T08:25:11;100014.47;;;0.81;66.84
22031;BME280;11179;52.106;21.024;2022-12-08T08:27:36;100005.75;;;0.85;66.70
22031;BME280;11179;52.106;21.024;2022-12-08T08:30:02;100012.41;;;0.83;66.47
22031;BME280;11179;52.106;21.024;2022-12-08T08:32:27;100009.31;;;0.86;66.64
22031;BME280;11179;52.106;21.024;2022-12-08T08:34:52;100010.56;;;0.90;66.49
22031;BME280;11179;52.106;21.024;2022-12-08T08:37:18;100013.69;;;1.00;66.45
22031;BME280;11179;52.106;21.024;2022-12-08T08:39:43;100005.19;;;1.03;66.33
22031;BME280;11179;52.106;21.024;2022-12-08T08:42:08;100021.22;;;1.18;66.33
22031;BME280;11179;52.106;21.024;2022-12-08T08:44:34;100021.03;;;1.19;66.10
22031;BME280;11179;52.106;21.024;2022-12-08T08:46:59;100017.69;;;1.24;66.10
22031;BME280;11179;52.106;21.024;2022-12-08T08:49:25;100025.59;;;1.26;66.25
22031;BME280;11179;52.106;21.024;2022-12-08T08:51:50;100029.16;;;1.33;66.21
22031;BME280;11179;52.106;21.024;2022-12-08T08:54:15;100026.66;;;1.38;66.37
22031;BME280;11179;52.106;21.024;2022-12-08T08:56:40;100015.41;;;1.47;66.17
22031;BME280;11179;52.106;21.024;2022-12-08T08:59:06;100017.09;;;1.62;65.89
22031;BME280;11179;52.106;21.024;2022-12-08T09:01:31;100011.06;;;1.66;65.79
22031;BME280;11179;52.106;21.024;2022-12-08T09:03:57;100015.03;;;1.70;65.74
22031;BME280;11179;52.106;21.024;2022-12-08T09:06:23;99999.81;;;1.63;65.75
22031;BME280;11179;52.106;21.024;2022-12-08T09:08:49;100022.28;;;1.76;65.98
22031;BME280;11179;52.106;21.024;2022-12-08T09:11:15;100021.03;;;1.79;65.87
22031;BME280;11179;52.106;21.024;2022-12-08T09:13:42;100013.75;;;1.79;65.68
22031;BME280;11179;52.106;21.024;2022-12-08T09:16:10;100018.53;;;1.90;65.57
22031;BME280;11179;52.106;21.024;2022-12-08T09:18:35;100017.91;;;1.95;65.68
22031;BME280;11179;52.106;21.024;2022-12-08T09:21:15;100003.13;;;1.98;65.38
22031;BME280;11179;52.106;21.024;2022-12-08T09:23:44;100011.81;;;2.13;65.31
22031;BME280;11179;52.106;21.024;2022-12-08T09:26:10;100013.25;;;2.22;65.29
22031;BME280;11179;52.106;21.024;2022-12-08T09:28:36;99999.72;;;2.15;65.37
22031;BME280;11179;52.106;21.024;2022-12-08T09:31:02;100010.13;;;2.25;65.36
22031;BME280;11179;52.106;21.024;2022-12-08T09:33:27;100001.13;;;2.31;65.37
22031;BME280;11179;52.106;21.024;2022-12-08T09:35:53;100008.22;;;2.32;65.30
22031;BME280;11179;52.106;21.024;2022-12-08T09:38:18;100012.19;;;2.29;65.30
22031;BME280;11179;52.106;21.024;2022-12-08T09:40:49;100004.31;;;2.21;65.37
22031;BME280;11179;52.106;21.024;2022-12-08T09:46:09;100004.47;;;2.26;65.23
22031;BME280;11179;52.106;21.024;2022-12-08T09:48:41;100001.97;;;2.38;65.10
22031;BME280;11179;52.106;21.024;2022-12-08T09:51:09;99995.25;;;2.47;65.33
22031;BME280;11179;52.106;21.024;2022-12-08T09:53:44;99988.97;;;2.53;65.15
22031;BME280;11179;52.106;21.024;2022-12-08T09:56:22;99976.44;;;2.59;65.11
22031;BME280;11179;52.106;21.024;2022-12-08T09:58:59;99988.91;;;2.66;65.09
22031;BME280;11179;52.106;21.024;2022-12-08T10:01:30;99984.56;;;2.65;65.01
22031;BME280;11179;52.106;21.024;2022-12-08T10:03:56;99979.72;;;2.68;64.93
22031;BME280;11179;52.106;21.024;2022-12-08T10:06:33;99969.06;;;2.73;65.07
22031;BME280;11179;52.106;21.024;2022-12-08T10:12:08;99964.31;;;2.99;64.95
22031;BME280;11179;52.106;21.024;2022-12-08T10:17:45;99969.44;;;3.14;64.85
22031;BME280;11179;52.106;21.024;2022-12-08T10:20:17;99976.34;;;3.10;64.83
22031;BME280;11179;52.106;21.024;2022-12-08T10:22:45;99964.66;;;3.10;64.86
22031;BME280;11179;52.106;21.024;2022-12-08T10:25:28;99965.09;;;3.07;64.70
22031;BME280;11179;52.106;21.024;2022-12-08T10:27:57;99966.63;;;2.96;64.91
22031;BME280;11179;52.106;21.024;2022-12-08T10:30:22;99970.66;;;2.87;64.94
22031;BME280;11179;52.106;21.024;2022-12-08T10:32:50;99963.00;;;2.77;65.09
22031;BME280;11179;52.106;21.024;2022-12-08T10:35:18;99954.28;;;2.69;65.09
22031;BME280;11179;52.106;21.024;2022-12-08T10:37:58;99951.34;;;2.70;65.13
22031;BME280;11179;52.106;21.024;2022-12-08T10:40:26;99949.25;;;2.72;65.16
22031;BME280;11179;52.106;21.024;2022-12-08T10:42:54;99931.38;;;2.64;65.55
22031;BME280;11179;52.106;21.024;2022-12-08T10:45:28;99953.59;;;2.80;65.67
22031;BME280;11179;52.106;21.024;2022-12-08T10:52:57;99932.13;;;3.10;65.67
22031;BME280;11179;52.106;21.024;2022-12-08T10:55:23;99927.41;;;3.23;65.58
22031;BME280;11179;52.106;21.024;2022-12-08T10:57:49;99939.81;;;3.37;65.39
22031;BME280;11179;52.106;21.024;2022-12-08T11:00:24;99933.06;;;3.47;65.06
22031;BME280;11179;52.106;21.024;2022-12-08T11:03:02;99928.09;;;3.44;65.02
22031;BME280;11179;52.106;21.024;2022-12-08T11:05:31;99938.34;;;3.42;65.09
22031;BME280;11179;52.106;21.024;2022-12-08T11:07:58;99935.22;;;3.38;65.02
22031;BME280;11179;52.106;21.024;2022-12-08T11:10:33;99934.19;;;3.39;65.29
22031;BME280;11179;52.106;21.024;2022-12-08T11:13:01;99930.00;;;3.36;65.02
22031;BME280;11179;52.106;21.024;2022-12-08T11:15:33;99934.25;;;3.32;65.04
22031;BME280;11179;52.106;21.024;2022-12-08T11:18:06;99930.53;;;3.27;65.30
22031;BME280;11179;52.106;21.024;2022-12-08T11:20:38;99925.13;;;3.20;65.42
22031;BME280;11179;52.106;21.024;2022-12-08T11:23:17;99914.38;;;3.07;65.27
22031;BME280;11179;52.106;21.024;2022-12-08T11:25:43;99921.75;;;3.00;65.60
22031;BME280;11179;52.106;21.024;2022-12-08T11:28:09;99921.84;;;2.87;65.36
22031;BME280;11179;52.106;21.024;2022-12-08T11:30:42;99917.13;;;2.76;65.59
22031;BME280;11179;52.106;21.024;2022-12-08T11:33:16;99922.97;;;2.73;65.52
22031;BME280;11179;52.106;21.024;2022-12-08T11:35:46;99921.59;;;2.63;65.86
22031;BME280;11179;52.106;21.024;2022-12-08T11:38:16;99915.78;;;2.53;65.66
22031;BME280;11179;52.106;21.024;2022-12-08T11:40:45;99907.34;;;2.37;66.08
22031;BME280;11179;52.106;21.024;2022-12-08T11:43:51;99921.47;;;2.45;66.23
22031;BME280;11179;52.106;21.024;2022-12-08T11:46:22;99908.81;;;2.39;66.00
22031;BME280;11179;52.106;21.024;2022-12-08T11:49:01;99910.28;;;2.35;66.06
22031;BME280;11179;52.106;21.024;2022-12-08T11:51:37;99902.00;;;2.23;66.30
22031;BME280;11179;52.106;21.024;2022-12-08T11:56:51;99906.75;;;2.28;66.39
22031;BME280;11179;52.106;21.024;2022-12-08T12:01:57;99910.06;;;2.30;66.69
22031;BME280;11179;52.106;21.024;2022-12-08T12:04:26;99909.47;;;2.28;66.59
22031;BME280;11179;52.106;21.024;2022-12-08T12:07:16;99904.03;;;2.28;66.47
22031;BME280;11179;52.106;21.024;2022-12-08T12:18:03;99884.28;;;2.21;66.92
22031;BME280;11179;52.106;21.024;2022-12-08T12:21:09;99884.28;;;2.21;67.10
22031;BME280;11179;52.106;21.024;2022-12-08T12:23:38;99886.09;;;2.34;67.04
22031;BME280;11179;52.106;21.024;2022-12-08T12:26:07;99876.94;;;2.28;67.17
22031;BME280;11179;52.106;21.024;2022-12-08T12:31:35;99883.19;;;2.35;67.29
22031;BME280;11179;52.106;21.024;2022-12-08T12:34:09;99877.75;;;2.35;67.41
22031;BME280;11179;52.106;21.024;2022-12-08T12:37:12;99878.53;;;2.42;67.24
22031;BME280;11179;52.106;21.024;2022-12-08T12:42:46;99870.59;;;2.47;67.47
22031;BME280;11179;52.106;21.024;2022-12-08T12:55:53;99863.94;;;2.50;67.43
22031;BME280;11179;52.106;21.024;2022-12-08T12:58:35;99848.94;;;2.47;67.64
22031;BME280;11179;52.106;21.024;2022-12-08T13:03:40;99842.63;;;2.53;67.51
22031;BME280;11179;52.106;21.024;2022-12-08T13:06:06;99849.13;;;2.52;67.71
22031;BME280;11179;52.106;21.024;2022-12-08T13:08:38;99842.06;;;2.45;67.52
22031;BME280;11179;52.106;21.024;2022-12-08T13:11:07;99851.84;;;2.46;67.71
22031;BME280;11179;52.106;21.024;2022-12-08T13:13:35;99861.84;;;2.45;67.78
22031;BME280;11179;52.106;21.024;2022-12-08T13:16:03;99863.13;;;2.43;67.97
22031;BME280;11179;52.106;21.024;2022-12-08T13:18:39;99860.47;;;2.36;68.03
22031;BME280;11179;52.106;21.024;2022-12-08T13:31:36;99856.44;;;2.45;68.36
22031;BME280;11179;52.106;21.024;2022-12-08T13:34:24;99854.34;;;2.47;68.13
22031;BME280;11179;52.106;21.024;2022-12-08T13:40:07;99846.84;;;2.49;68.38
22031;BME280;11179;52.106;21.024;2022-12-08T13:43:09;99838.91;;;2.48;68.15
22031;BME280;11179;52.106;21.024;2022-12-08T13:45:32;99850.50;;;2.61;68.21
22031;BME280;11179;52.106;21.024;2022-12-08T13:48:45;99846.13;;;2.60;68.26
22031;BME280;11179;52.106;21.024;2022-12-08T13:51:40;99845.50;;;2.58;68.43
22031;BME280;11179;52.106;21.024;2022-12-08T13:54:29;99852.81;;;2.58;68.07
22031;BME280;11179;52.106;21.024;2022-12-08T13:56:56;99840.59;;;2.49;68.11
22031;BME280;11179;52.106;21.024;2022-12-08T13:59:28;99851.56;;;2.54;68.42
22031;BME280;11179;52.106;21.024;2022-12-08T14:01:57;99847.66;;;2.50;68.28
22031;BME280;11179;52.106;21.024;2022-12-08T14:04:24;99845.19;;;2.42;68.38
22031;BME280;11179;52.106;21.024;2022-12-08T14:06:56;99837.91;;;2.42;68.75
22031;BME280;11179;52.106;21.024;2022-12-08T14:09:25;99844.00;;;2.38;68.83
22031;BME280;11179;52.106;21.024;2022-12-08T14:12:24;99839.00;;;2.35;68.78
22031;BME280;11179;52.106;21.024;2022-12-08T14:14:52;99837.16;;;2.28;68.72
22031;BME280;11179;52.106;21.024;2022-12-08T14:17:21;99847.78;;;2.30;68.53
22031;BME280;11179;52.106;21.024;2022-12-08T14:19:57;99842.34;;;2.30;68.85
22031;BME280;11179;52.106;21.024;2022-12-08T14:22:23;99833.66;;;2.21;68.63
22031;BME280;11179;52.106;21.024;2022-12-08T14:24:51;99839.91;;;2.22;68.75
22031;BME280;11179;52.106;21.024;2022-12-08T14:27:26;99838.03;;;2.22;68.79
22031;BME280;11179;52.106;21.024;2022-12-08T14:29:57;99831.81;;;2.15;68.95